This is the latest recevied weather packets stored in our database for station/object AD8IZ-13. If no packets are shown the sender has not sent any weather packets the latest 10 day(s).
| Time | Temp. | Humidity | Pressure | Rain* | Wind** | Luminosity | Snow |
|---|---|---|---|---|---|---|---|
| 1777776318 | 3.33° C | 85% | 1017.9 hPa | 0 mm | - | 0 W/m² | - |
| 1777775719 | 3.89° C | 83% | 1017.9 hPa | 0 mm | - | 0 W/m² | - |
| 1777775119 | 4.44° C | 81% | 1017.8 hPa | 0 mm | - | 0 W/m² | - |
| 1777774519 | 4.44° C | 78% | 1017.7 hPa | 0 mm | - | 0 W/m² | - |
| 1777773919 | 5° C | 76% | 1017.6 hPa | 0 mm | - | 0 W/m² | - |
| 1777773324 | 5.56° C | 74% | 1017.5 hPa | 0 mm | - | 0 W/m² | - |
| 1777772119 | 6.11° C | 73% | 1017.4 hPa | 0 mm | - | 0 W/m² | - |
| 1777765520 | 7.22° C | 63% | 1016.8 hPa | 0 mm | - | 27 W/m² | - |
| 1777764920 | 7.78° C | 63% | 1016.7 hPa | 0 mm | - | 34 W/m² | - |
| 1777761320 | 7.78° C | 60% | 1016.6 hPa | 0 mm | - | 77 W/m² | - |
| 1777760721 | 8.33° C | 61% | 1016.6 hPa | 0 mm | - | 117 W/m² | - |
| 1777760117 | 8.33° C | 61% | 1016.6 hPa | 0 mm | - | 189 W/m² | - |
| 1777758923 | 8.33° C | 63% | 1016.4 hPa | 0 mm | - | 88 W/m² | - |
| 1777757718 | 8.33° C | 57% | 1016.3 hPa | 0 mm | - | 191 W/m² | - |
| 1777757118 | 8.33° C | 59% | 1016.3 hPa | 0 mm | - | 148 W/m² | - |
| 1777756518 | 8.33° C | 58% | 1016.2 hPa | 0 mm | - | 196 W/m² | - |
| 1777755918 | 8.33° C | 60% | 1016.2 hPa | 0 mm | - | 261 W/m² | - |
| 1777754118 | 8.89° C | 60% | 1016.2 hPa | 0 mm | - | 264 W/m² | - |
| 1777753519 | 8.33° C | 62% | 1016.3 hPa | 0 mm | - | 390 W/m² | - |
| 1777752919 | 8.33° C | 62% | 1016.4 hPa | 0 mm | - | 207 W/m² | - |
| 1777752319 | 8.89° C | 62% | 1016.3 hPa | 0 mm | - | 135 W/m² | - |
| 1777751719 | 8.89° C | 57% | 1016.2 hPa | 0 mm | - | 257 W/m² | - |
| 1777751116 | 9.44° C | 56% | 1016.3 hPa | 0 mm | - | 258 W/m² | - |
| 1777750516 | 8.89° C | 57% | 1016.4 hPa | 0 mm | - | 304 W/m² | - |
| 1777749920 | 8.89° C | 58% | 1016.5 hPa | 0 mm | - | 349 W/m² | - |
* Rain latest hour (hover to see other rain measurements)
** Current wind speed in m/s (hover to see current wind gust speed)